sensor_id;sensor_type;location;lat;lon;timestamp;pressure;altitude;pressure_sealevel;temperature;humidity
75420;BME280;63998;52.488;13.428;2023-04-24T00:00:18;99816.19;;;14.27;61.69
75420;BME280;63998;52.488;13.428;2023-04-24T00:02:44;99814.66;;;14.20;62.01
75420;BME280;63998;52.488;13.428;2023-04-24T00:05:14;99807.78;;;14.16;62.17
75420;BME280;63998;52.488;13.428;2023-04-24T00:07:43;99802.50;;;14.19;62.26
75420;BME280;63998;52.488;13.428;2023-04-24T00:10:09;99798.88;;;14.23;62.29
75420;BME280;63998;52.488;13.428;2023-04-24T00:12:35;99804.91;;;14.25;62.35
75420;BME280;63998;52.488;13.428;2023-04-24T00:15:00;99804.97;;;14.23;62.59
75420;BME280;63998;52.488;13.428;2023-04-24T00:17:28;99800.78;;;14.18;62.34
75420;BME280;63998;52.488;13.428;2023-04-24T00:19:53;99799.22;;;14.11;62.41
75420;BME280;63998;52.488;13.428;2023-04-24T00:22:28;99788.97;;;14.05;62.79
75420;BME280;63998;52.488;13.428;2023-04-24T00:24:56;99790.00;;;13.97;62.62
75420;BME280;63998;52.488;13.428;2023-04-24T00:27:22;99791.09;;;13.90;63.43
75420;BME280;63998;52.488;13.428;2023-04-24T00:29:50;99784.13;;;13.89;63.21
75420;BME280;63998;52.488;13.428;2023-04-24T00:32:15;99781.50;;;13.91;63.42
75420;BME280;63998;52.488;13.428;2023-04-24T00:34:41;99777.13;;;13.91;63.08
75420;BME280;63998;52.488;13.428;2023-04-24T00:37:07;99768.75;;;13.80;63.00
75420;BME280;63998;52.488;13.428;2023-04-24T00:39:34;99774.81;;;13.81;63.48
75420;BME280;63998;52.488;13.428;2023-04-24T00:42:02;99766.06;;;13.83;63.58
75420;BME280;63998;52.488;13.428;2023-04-24T00:44:30;99761.63;;;13.85;64.12
75420;BME280;63998;52.488;13.428;2023-04-24T00:46:55;99758.13;;;13.86;64.08
75420;BME280;63998;52.488;13.428;2023-04-24T00:49:21;99753.69;;;13.90;63.69
75420;BME280;63998;52.488;13.428;2023-04-24T00:51:51;99752.75;;;13.92;63.58
75420;BME280;63998;52.488;13.428;2023-04-24T00:54:19;99745.94;;;13.85;63.94
75420;BME280;63998;52.488;13.428;2023-04-24T00:56:48;99753.00;;;13.83;64.21
75420;BME280;63998;52.488;13.428;2023-04-24T00:59:16;99737.34;;;13.83;64.01
75420;BME280;63998;52.488;13.428;2023-04-24T01:01:44;99741.75;;;13.81;64.32
75420;BME280;63998;52.488;13.428;2023-04-24T01:04:12;99736.56;;;13.80;64.42
75420;BME280;63998;52.488;13.428;2023-04-24T01:06:39;99734.81;;;13.80;64.57
75420;BME280;63998;52.488;13.428;2023-04-24T01:09:05;99744.41;;;13.78;64.78
75420;BME280;63998;52.488;13.428;2023-04-24T01:11:33;99751.47;;;13.75;64.30
75420;BME280;63998;52.488;13.428;2023-04-24T01:13:58;99751.50;;;13.73;65.00
75420;BME280;63998;52.488;13.428;2023-04-24T01:16:24;99743.69;;;13.73;65.08
75420;BME280;63998;52.488;13.428;2023-04-24T01:18:50;99742.88;;;13.71;65.09
75420;BME280;63998;52.488;13.428;2023-04-24T01:21:16;99745.50;;;13.71;64.93
75420;BME280;63998;52.488;13.428;2023-04-24T01:23:45;99753.22;;;13.74;65.08
75420;BME280;63998;52.488;13.428;2023-04-24T01:26:12;99747.84;;;13.80;65.13
75420;BME280;63998;52.488;13.428;2023-04-24T01:28:38;99737.22;;;13.86;65.24
75420;BME280;63998;52.488;13.428;2023-04-24T01:31:06;99736.28;;;13.89;65.29
75420;BME280;63998;52.488;13.428;2023-04-24T01:33:32;99739.88;;;13.85;65.19
75420;BME280;63998;52.488;13.428;2023-04-24T01:36:00;99735.50;;;13.85;65.39
75420;BME280;63998;52.488;13.428;2023-04-24T01:38:26;99734.53;;;13.89;65.31
75420;BME280;63998;52.488;13.428;2023-04-24T01:40:51;99728.44;;;13.90;65.09
75420;BME280;63998;52.488;13.428;2023-04-24T01:43:20;99728.44;;;13.90;65.57
75420;BME280;63998;52.488;13.428;2023-04-24T01:45:46;99727.66;;;13.87;65.70
75420;BME280;63998;52.488;13.428;2023-04-24T01:48:13;99725.19;;;13.82;65.46
75420;BME280;63998;52.488;13.428;2023-04-24T01:50:39;99727.75;;;13.84;65.50
75420;BME280;63998;52.488;13.428;2023-04-24T01:53:04;99719.16;;;13.80;66.21
75420;BME280;63998;52.488;13.428;2023-04-24T01:55:30;99713.88;;;13.82;66.29
75420;BME280;63998;52.488;13.428;2023-04-24T01:57:56;99712.22;;;13.79;66.31
75420;BME280;63998;52.488;13.428;2023-04-24T02:00:23;99713.19;;;13.75;66.63
75420;BME280;63998;52.488;13.428;2023-04-24T02:02:49;99710.53;;;13.77;66.43
75420;BME280;63998;52.488;13.428;2023-04-24T02:05:17;99712.47;;;13.70;66.94
75420;BME280;63998;52.488;13.428;2023-04-24T02:07:47;99714.06;;;13.74;66.52
75420;BME280;63998;52.488;13.428;2023-04-24T02:10:15;99706.44;;;13.68;66.81
75420;BME280;63998;52.488;13.428;2023-04-24T02:12:42;99699.41;;;13.70;66.66
75420;BME280;63998;52.488;13.428;2023-04-24T02:15:08;99699.38;;;13.72;67.16
75420;BME280;63998;52.488;13.428;2023-04-24T02:17:33;99702.25;;;13.61;67.13
75420;BME280;63998;52.488;13.428;2023-04-24T02:20:03;99696.97;;;13.64;67.18
75420;BME280;63998;52.488;13.428;2023-04-24T02:22:29;99698.44;;;13.73;67.06
75420;BME280;63998;52.488;13.428;2023-04-24T02:24:57;99696.06;;;13.65;67.39
75420;BME280;63998;52.488;13.428;2023-04-24T02:27:23;99696.47;;;13.50;67.65
75420;BME280;63998;52.488;13.428;2023-04-24T02:29:48;99702.69;;;13.46;68.38
75420;BME280;63998;52.488;13.428;2023-04-24T02:32:13;99703.91;;;13.33;68.99
75420;BME280;63998;52.488;13.428;2023-04-24T02:34:42;99695.25;;;13.30;68.86
75420;BME280;63998;52.488;13.428;2023-04-24T02:37:08;99697.03;;;13.28;68.77
75420;BME280;63998;52.488;13.428;2023-04-24T02:39:33;99701.44;;;13.26;69.30
75420;BME280;63998;52.488;13.428;2023-04-24T02:41:59;99704.28;;;13.17;69.68
75420;BME280;63998;52.488;13.428;2023-04-24T02:44:27;99703.53;;;13.11;69.95
75420;BME280;63998;52.488;13.428;2023-04-24T02:46:52;99704.41;;;13.11;70.54
75420;BME280;63998;52.488;13.428;2023-04-24T02:49:17;99693.97;;;13.11;69.70
75420;BME280;63998;52.488;13.428;2023-04-24T02:51:43;99699.28;;;13.08;70.59
75420;BME280;63998;52.488;13.428;2023-04-24T02:54:10;99696.78;;;13.04;70.47
75420;BME280;63998;52.488;13.428;2023-04-24T02:56:38;99686.38;;;13.02;70.55
75420;BME280;63998;52.488;13.428;2023-04-24T02:59:03;99686.31;;;13.05;70.74
75420;BME280;63998;52.488;13.428;2023-04-24T03:01:29;99693.59;;;12.92;71.21
75420;BME280;63998;52.488;13.428;2023-04-24T03:03:54;99685.66;;;12.97;71.23
75420;BME280;63998;52.488;13.428;2023-04-24T03:06:20;99682.31;;;12.92;71.52
75420;BME280;63998;52.488;13.428;2023-04-24T03:08:46;99685.34;;;13.09;70.76
75420;BME280;63998;52.488;13.428;2023-04-24T03:11:11;99696.00;;;13.00;71.25
75420;BME280;63998;52.488;13.428;2023-04-24T03:13:36;99695.78;;;13.09;71.13
75420;BME280;63998;52.488;13.428;2023-04-24T03:16:01;99694.06;;;13.08;71.21
75420;BME280;63998;52.488;13.428;2023-04-24T03:18:27;99702.63;;;13.13;71.45
75420;BME280;63998;52.488;13.428;2023-04-24T03:20:52;99702.66;;;13.12;70.64
75420;BME280;63998;52.488;13.428;2023-04-24T03:23:18;99708.56;;;13.20;70.25
75420;BME280;63998;52.488;13.428;2023-04-24T03:25:45;99706.97;;;13.13;70.88
75420;BME280;63998;52.488;13.428;2023-04-24T03:28:13;99706.41;;;13.00;71.21
75420;BME280;63998;52.488;13.428;2023-04-24T03:30:41;99707.56;;;12.88;71.76
75420;BME280;63998;52.488;13.428;2023-04-24T03:33:06;99698.00;;;12.89;71.57
75420;BME280;63998;52.488;13.428;2023-04-24T03:35:32;99699.59;;;12.96;71.58
75420;BME280;63998;52.488;13.428;2023-04-24T03:37:57;99697.69;;;13.01;71.84
75420;BME280;63998;52.488;13.428;2023-04-24T03:40:22;99687.22;;;13.04;71.47
75420;BME280;63998;52.488;13.428;2023-04-24T03:42:50;99690.63;;;13.06;71.25
75420;BME280;63998;52.488;13.428;2023-04-24T03:45:15;99709.13;;;12.97;71.65
75420;BME280;63998;52.488;13.428;2023-04-24T03:47:43;99707.41;;;12.96;71.37
75420;BME280;63998;52.488;13.428;2023-04-24T03:50:09;99713.63;;;12.89;71.75
75420;BME280;63998;52.488;13.428;2023-04-24T03:52:36;99709.22;;;12.92;71.57
75420;BME280;63998;52.488;13.428;2023-04-24T03:55:02;99709.00;;;13.02;71.90
75420;BME280;63998;52.488;13.428;2023-04-24T03:57:27;99697.69;;;13.01;71.85
75420;BME280;63998;52.488;13.428;2023-04-24T03:59:53;99705.53;;;13.01;71.39
75420;BME280;63998;52.488;13.428;2023-04-24T04:02:18;99700.44;;;12.97;71.98
75420;BME280;63998;52.488;13.428;2023-04-24T04:04:44;99704.03;;;12.91;71.54
75420;BME280;63998;52.488;13.428;2023-04-24T04:07:09;99702.38;;;12.87;71.79
75420;BME280;63998;52.488;13.428;2023-04-24T04:09:38;99697.00;;;12.94;71.86
75420;BME280;63998;52.488;13.428;2023-04-24T04:12:03;99687.22;;;13.04;71.73
75420;BME280;63998;52.488;13.428;2023-04-24T04:14:28;99699.41;;;13.02;71.59
75420;BME280;63998;52.488;13.428;2023-04-24T04:16:54;99690.56;;;13.09;71.43
75420;BME280;63998;52.488;13.428;2023-04-24T04:19:24;99693.09;;;13.11;71.71
75420;BME280;63998;52.488;13.428;2023-04-24T04:21:54;99698.19;;;13.18;70.99
75420;BME280;63998;52.488;13.428;2023-04-24T04:24:21;99693.97;;;13.11;71.20
75420;BME280;63998;52.488;13.428;2023-04-24T04:26:51;99686.09;;;13.14;71.48
75420;BME280;63998;52.488;13.428;2023-04-24T04:29:19;99680.03;;;13.12;71.46
75420;BME280;63998;52.488;13.428;2023-04-24T04:31:45;99683.72;;;13.05;71.34
75420;BME280;63998;52.488;13.428;2023-04-24T04:34:10;99691.53;;;13.05;71.77
75420;BME280;63998;52.488;13.428;2023-04-24T04:36:36;99702.78;;;13.07;71.23
75420;BME280;63998;52.488;13.428;2023-04-24T04:39:05;99697.28;;;13.19;71.09
75420;BME280;63998;52.488;13.428;2023-04-24T04:41:33;99693.78;;;13.20;71.18
75420;BME280;63998;52.488;13.428;2023-04-24T04:44:03;99700.09;;;13.10;70.89
75420;BME280;63998;52.488;13.428;2023-04-24T04:46:30;99714.44;;;12.92;71.55
75420;BME280;63998;52.488;13.428;2023-04-24T04:48:58;99718.72;;;12.95;71.96
75420;BME280;63998;52.488;13.428;2023-04-24T04:51:23;99716.41;;;12.83;72.49
75420;BME280;63998;52.488;13.428;2023-04-24T04:53:48;99707.53;;;12.90;72.39
75420;BME280;63998;52.488;13.428;2023-04-24T04:56:14;99718.78;;;12.92;72.40
75420;BME280;63998;52.488;13.428;2023-04-24T04:58:39;99714.56;;;12.86;72.62
75420;BME280;63998;52.488;13.428;2023-04-24T05:01:04;99722.22;;;12.94;71.82
75420;BME280;63998;52.488;13.428;2023-04-24T05:03:30;99716.16;;;12.93;72.41
75420;BME280;63998;52.488;13.428;2023-04-24T05:05:55;99716.94;;;12.97;71.75
75420;BME280;63998;52.488;13.428;2023-04-24T05:08:23;99723.91;;;12.97;72.23
75420;BME280;63998;52.488;13.428;2023-04-24T05:10:48;99720.44;;;12.96;71.97
75420;BME280;63998;52.488;13.428;2023-04-24T05:13:13;99727.38;;;12.97;72.26
75420;BME280;63998;52.488;13.428;2023-04-24T05:15:39;99725.56;;;12.99;72.20
75420;BME280;63998;52.488;13.428;2023-04-24T05:18:06;99730.97;;;12.91;72.26
75420;BME280;63998;52.488;13.428;2023-04-24T05:20:32;99719.66;;;12.92;71.87
75420;BME280;63998;52.488;13.428;2023-04-24T05:22:57;99725.78;;;12.90;71.88
75420;BME280;63998;52.488;13.428;2023-04-24T05:25:22;99722.28;;;12.91;72.34
75420;BME280;63998;52.488;13.428;2023-04-24T05:27:48;99717.88;;;12.94;71.46
75420;BME280;63998;52.488;13.428;2023-04-24T05:30:16;99734.44;;;12.92;71.94
75420;BME280;63998;52.488;13.428;2023-04-24T05:32:41;99735.97;;;12.99;71.38
75420;BME280;63998;52.488;13.428;2023-04-24T05:35:06;99737.69;;;13.00;71.46
75420;BME280;63998;52.488;13.428;2023-04-24T05:37:32;99727.13;;;13.06;71.16
75420;BME280;63998;52.488;13.428;2023-04-24T05:40:00;99728.78;;;13.10;71.36
75420;BME280;63998;52.488;13.428;2023-04-24T05:42:25;99732.47;;;13.00;71.45
75420;BME280;63998;52.488;13.428;2023-04-24T05:44:55;99734.38;;;12.95;71.22
75420;BME280;63998;52.488;13.428;2023-04-24T05:47:20;99734.28;;;12.98;71.46
75420;BME280;63998;52.488;13.428;2023-04-24T05:49:49;99734.19;;;13.01;70.65
75420;BME280;63998;52.488;13.428;2023-04-24T05:52:17;99729.88;;;13.00;71.03
75420;BME280;63998;52.488;13.428;2023-04-24T05:54:47;99736.03;;;12.98;70.54
75420;BME280;63998;52.488;13.428;2023-04-24T05:57:15;99739.50;;;12.98;71.09
75420;BME280;63998;52.488;13.428;2023-04-24T05:59:42;99737.78;;;12.97;71.09
75420;BME280;63998;52.488;13.428;2023-04-24T06:02:08;99744.78;;;12.95;70.50
75420;BME280;63998;52.488;13.428;2023-04-24T06:04:33;99755.22;;;12.95;70.62
75420;BME280;63998;52.488;13.428;2023-04-24T06:07:03;99762.16;;;12.96;70.72
75420;BME280;63998;52.488;13.428;2023-04-24T06:09:31;99747.47;;;12.92;70.23
75420;BME280;63998;52.488;13.428;2023-04-24T06:11:56;99744.91;;;12.89;70.16
75420;BME280;63998;52.488;13.428;2023-04-24T06:14:22;99748.34;;;12.91;70.63
75420;BME280;63998;52.488;13.428;2023-04-24T06:16:50;99757.69;;;13.00;70.00
75420;BME280;63998;52.488;13.428;2023-04-24T06:19:16;99775.94;;;13.00;70.01
75420;BME280;63998;52.488;13.428;2023-04-24T06:21:41;99765.28;;;13.10;70.06
75420;BME280;63998;52.488;13.428;2023-04-24T06:24:06;99762.28;;;13.27;68.66
75420;BME280;63998;52.488;13.428;2023-04-24T06:26:34;99771.19;;;13.18;68.80
75420;BME280;63998;52.488;13.428;2023-04-24T06:28:59;99761.50;;;13.23;68.37
75420;BME280;63998;52.488;13.428;2023-04-24T06:31:25;99762.63;;;13.12;68.59
75420;BME280;63998;52.488;13.428;2023-04-24T06:33:50;99766.94;;;13.14;68.68
75420;BME280;63998;52.488;13.428;2023-04-24T06:36:16;99762.25;;;13.28;68.61
75420;BME280;63998;52.488;13.428;2023-04-24T06:38:42;99768.13;;;13.37;68.25
75420;BME280;63998;52.488;13.428;2023-04-24T06:41:10;99765.31;;;13.46;67.64
75420;BME280;63998;52.488;13.428;2023-04-24T06:43:37;99777.38;;;13.48;67.07
75420;BME280;63998;52.488;13.428;2023-04-24T06:46:03;99779.81;;;13.56;66.74
75420;BME280;63998;52.488;13.428;2023-04-24T06:48:28;99769.06;;;13.68;66.71
75420;BME280;63998;52.488;13.428;2023-04-24T06:50:56;99758.13;;;13.86;65.87
75420;BME280;63998;52.488;13.428;2023-04-24T06:53:21;99752.47;;;14.01;65.31
75420;BME280;63998;52.488;13.428;2023-04-24T06:55:46;99757.53;;;14.08;64.72
75420;BME280;63998;52.488;13.428;2023-04-24T06:58:12;99753.69;;;14.21;64.04
75420;BME280;63998;52.488;13.428;2023-04-24T07:00:38;99751.38;;;14.41;63.17
75420;BME280;63998;52.488;13.428;2023-04-24T07:03:06;99755.22;;;14.28;63.00
75420;BME280;63998;52.488;13.428;2023-04-24T07:05:31;99746.16;;;14.41;62.36
75420;BME280;63998;52.488;13.428;2023-04-24T07:07:59;99748.56;;;14.47;62.09
75420;BME280;63998;52.488;13.428;2023-04-24T07:10:25;99749.38;;;14.49;61.38
75420;BME280;63998;52.488;13.428;2023-04-24T07:12:53;99740.06;;;14.41;61.46
75420;BME280;63998;52.488;13.428;2023-04-24T07:15:19;99748.84;;;14.36;62.36
75420;BME280;63998;52.488;13.428;2023-04-24T07:17:46;99749.50;;;14.46;61.21
75420;BME280;63998;52.488;13.428;2023-04-24T07:20:12;99745.56;;;14.59;60.64
75420;BME280;63998;52.488;13.428;2023-04-24T07:22:41;99747.03;;;14.69;60.77
75420;BME280;63998;52.488;13.428;2023-04-24T07:25:09;99743.31;;;14.77;60.41
75420;BME280;63998;52.488;13.428;2023-04-24T07:27:35;99746.44;;;14.88;60.05
75420;BME280;63998;52.488;13.428;2023-04-24T07:30:02;99752.09;;;15.02;59.67
75420;BME280;63998;52.488;13.428;2023-04-24T07:32:29;99749.09;;;14.86;59.35
75420;BME280;63998;52.488;13.428;2023-04-24T07:34:57;99756.91;;;14.88;58.39
75420;BME280;63998;52.488;13.428;2023-04-24T07:37:23;99768.13;;;14.63;58.01
75420;BME280;63998;52.488;13.428;2023-04-24T07:39:48;99770.03;;;14.58;57.82
75420;BME280;63998;52.488;13.428;2023-04-24T07:42:14;99757.09;;;14.82;57.99
75420;BME280;63998;52.488;13.428;2023-04-24T07:44:39;99746.88;;;15.02;56.01
75420;BME280;63998;52.488;13.428;2023-04-24T07:47:05;99750.13;;;15.08;54.81
75420;BME280;63998;52.488;13.428;2023-04-24T07:49:33;99747.22;;;15.18;54.30
75420;BME280;63998;52.488;13.428;2023-04-24T07:52:01;99739.84;;;15.30;53.86
75420;BME280;63998;52.488;13.428;2023-04-24T07:54:27;99753.38;;;15.17;53.53
75420;BME280;63998;52.488;13.428;2023-04-24T07:56:53;99749.63;;;15.24;53.34
75420;BME280;63998;52.488;13.428;2023-04-24T07:59:22;99746.78;;;15.05;52.38
75420;BME280;63998;52.488;13.428;2023-04-24T08:01:47;99744.91;;;15.08;52.82
75420;BME280;63998;52.488;13.428;2023-04-24T08:04:12;99739.84;;;15.30;53.27
75420;BME280;63998;52.488;13.428;2023-04-24T08:06:40;99740.53;;;15.62;53.24
75420;BME280;63998;52.488;13.428;2023-04-24T08:09:05;99744.16;;;15.58;51.07
75420;BME280;63998;52.488;13.428;2023-04-24T08:11:36;99735.63;;;15.77;51.35
75420;BME280;63998;52.488;13.428;2023-04-24T08:14:01;99732.59;;;15.88;49.18
75420;BME280;63998;52.488;13.428;2023-04-24T08:16:29;99743.84;;;15.92;49.88
75420;BME280;63998;52.488;13.428;2023-04-24T08:18:54;99755.69;;;16.02;51.97
75420;BME280;63998;52.488;13.428;2023-04-24T08:21:22;99749.25;;;16.10;53.50
75420;BME280;63998;52.488;13.428;2023-04-24T08:23:48;99741.91;;;16.20;53.72
75420;BME280;63998;52.488;13.428;2023-04-24T08:26:13;99746.78;;;16.31;53.60
75420;BME280;63998;52.488;13.428;2023-04-24T08:28:42;99741.53;;;16.31;53.06
75420;BME280;63998;52.488;13.428;2023-04-24T08:31:09;99739.22;;;16.45;52.47
75420;BME280;63998;52.488;13.428;2023-04-24T08:33:37;99721.75;;;16.69;52.85
75420;BME280;63998;52.488;13.428;2023-04-24T08:36:06;99736.84;;;16.62;51.70
75420;BME280;63998;52.488;13.428;2023-04-24T08:38:32;99731.94;;;16.53;51.91
75420;BME280;63998;52.488;13.428;2023-04-24T08:40:59;99735.69;;;16.46;52.06
75420;BME280;63998;52.488;13.428;2023-04-24T08:43:25;99744.78;;;16.59;51.55
75420;BME280;63998;52.488;13.428;2023-04-24T08:45:54;99737.84;;;16.35;51.54
75420;BME280;63998;52.488;13.428;2023-04-24T08:48:22;99743.31;;;16.52;51.41
75420;BME280;63998;52.488;13.428;2023-04-24T08:50:50;99743.53;;;16.69;50.27
75420;BME280;63998;52.488;13.428;2023-04-24T08:53:15;99739.91;;;16.73;48.62
75420;BME280;63998;52.488;13.428;2023-04-24T08:55:41;99746.75;;;16.77;48.78
75420;BME280;63998;52.488;13.428;2023-04-24T08:58:10;99734.66;;;16.73;48.92
75420;BME280;63998;52.488;13.428;2023-04-24T09:00:39;99734.44;;;16.79;48.63
75420;BME280;63998;52.488;13.428;2023-04-24T09:03:13;99743.84;;;16.83;49.10
75420;BME280;63998;52.488;13.428;2023-04-24T09:05:44;99744.00;;;16.80;49.41
75420;BME280;63998;52.488;13.428;2023-04-24T09:08:13;99738.69;;;17.04;49.29
75420;BME280;63998;52.488;13.428;2023-04-24T09:10:39;99747.31;;;17.28;48.92
75420;BME280;63998;52.488;13.428;2023-04-24T09:13:04;99750.41;;;17.17;49.55
75420;BME280;63998;52.488;13.428;2023-04-24T09:15:30;99744.66;;;16.85;50.40
75420;BME280;63998;52.488;13.428;2023-04-24T09:17:55;99742.59;;;16.94;49.92
75420;BME280;63998;52.488;13.428;2023-04-24T09:20:23;99747.47;;;17.03;50.04
75420;BME280;63998;52.488;13.428;2023-04-24T09:22:53;99746.63;;;17.02;49.26
75420;BME280;63998;52.488;13.428;2023-04-24T09:25:19;99752.59;;;17.06;49.96
75420;BME280;63998;52.488;13.428;2023-04-24T09:27:45;99758.78;;;16.81;49.36
75420;BME280;63998;52.488;13.428;2023-04-24T09:30:11;99759.63;;;16.37;49.73
75420;BME280;63998;52.488;13.428;2023-04-24T09:32:37;99758.16;;;16.30;51.13
75420;BME280;63998;52.488;13.428;2023-04-24T09:35:15;99768.72;;;16.03;53.31
75420;BME280;63998;52.488;13.428;2023-04-24T09:37:46;99755.16;;;15.92;53.69
75420;BME280;63998;52.488;13.428;2023-04-24T09:40:17;99759.47;;;16.18;53.63
75420;BME280;63998;52.488;13.428;2023-04-24T09:42:44;99762.03;;;16.43;52.77
75420;BME280;63998;52.488;13.428;2023-04-24T09:45:11;99767.03;;;16.49;52.83
75420;BME280;63998;52.488;13.428;2023-04-24T09:47:42;99763.50;;;16.50;53.26
75420;BME280;63998;52.488;13.428;2023-04-24T09:50:16;99757.72;;;16.65;53.12
75420;BME280;63998;52.488;13.428;2023-04-24T09:52:46;99762.84;;;16.68;53.22
75420;BME280;63998;52.488;13.428;2023-04-24T09:55:20;99759.97;;;16.74;52.64
75420;BME280;63998;52.488;13.428;2023-04-24T09:57:50;99743.91;;;16.82;51.97
75420;BME280;63998;52.488;13.428;2023-04-24T10:00:20;99745.88;;;16.99;51.27
75420;BME280;63998;52.488;13.428;2023-04-24T10:02:50;99740.25;;;17.08;50.97
75420;BME280;63998;52.488;13.428;2023-04-24T10:05:18;99742.41;;;16.98;51.07
75420;BME280;63998;52.488;13.428;2023-04-24T10:07:43;99748.69;;;17.16;51.24
75420;BME280;63998;52.488;13.428;2023-04-24T10:10:09;99736.47;;;17.15;50.97
75420;BME280;63998;52.488;13.428;2023-04-24T10:12:35;99748.31;;;17.25;50.77
75420;BME280;63998;52.488;13.428;2023-04-24T10:15:02;99747.22;;;17.09;50.59
75420;BME280;63998;52.488;13.428;2023-04-24T10:17:30;99746.34;;;17.30;51.20
75420;BME280;63998;52.488;13.428;2023-04-24T10:19:58;99752.19;;;17.37;50.59
75420;BME280;63998;52.488;13.428;2023-04-24T10:22:25;99746.47;;;17.47;49.20
75420;BME280;63998;52.488;13.428;2023-04-24T10:24:54;99737.41;;;17.34;48.42
75420;BME280;63998;52.488;13.428;2023-04-24T10:27:22;99740.03;;;17.34;49.12
75420;BME280;63998;52.488;13.428;2023-04-24T10:29:48;99747.84;;;17.15;49.79
75420;BME280;63998;52.488;13.428;2023-04-24T10:32:15;99746.97;;;17.15;49.87
75420;BME280;63998;52.488;13.428;2023-04-24T10:34:40;99744.91;;;17.01;49.81
75420;BME280;63998;52.488;13.428;2023-04-24T10:37:06;99747.84;;;16.94;50.49
75420;BME280;63998;52.488;13.428;2023-04-24T10:39:34;99742.59;;;16.94;50.25
75420;BME280;63998;52.488;13.428;2023-04-24T10:42:00;99743.53;;;16.93;49.72
75420;BME280;63998;52.488;13.428;2023-04-24T10:44:39;99743.22;;;16.78;48.98
75420;BME280;63998;52.488;13.428;2023-04-24T10:47:05;99750.34;;;16.51;49.58
75420;BME280;63998;52.488;13.428;2023-04-24T10:49:31;99743.69;;;16.43;50.28
75420;BME280;63998;52.488;13.428;2023-04-24T10:52:03;99743.38;;;16.50;50.65
75420;BME280;63998;52.488;13.428;2023-04-24T10:54:36;99747.66;;;16.53;51.02
75420;BME280;63998;52.488;13.428;2023-04-24T11:00:13;99734.59;;;16.97;51.43
75420;BME280;63998;52.488;13.428;2023-04-24T11:02:41;99725.88;;;16.96;50.05
75420;BME280;63998;52.488;13.428;2023-04-24T11:05:15;99724.66;;;17.05;49.77
75420;BME280;63998;52.488;13.428;2023-04-24T11:10:39;99720.97;;;17.71;47.75
75420;BME280;63998;52.488;13.428;2023-04-24T11:13:05;99746.53;;;17.68;47.35
75420;BME280;63998;52.488;13.428;2023-04-24T11:15:31;99733.22;;;17.50;48.17
75420;BME280;63998;52.488;13.428;2023-04-24T11:17:57;99739.25;;;17.32;48.38
75420;BME280;63998;52.488;13.428;2023-04-24T11:20:28;99731.03;;;17.19;49.02
75420;BME280;63998;52.488;13.428;2023-04-24T11:22:54;99726.72;;;16.97;50.14
75420;BME280;63998;52.488;13.428;2023-04-24T11:25:25;99731.84;;;17.00;50.02
75420;BME280;63998;52.488;13.428;2023-04-24T11:28:03;99725.75;;;16.77;50.11
75420;BME280;63998;52.488;13.428;2023-04-24T11:30:29;99722.22;;;16.78;50.56
75420;BME280;63998;52.488;13.428;2023-04-24T11:33:02;99734.28;;;16.82;50.48
75420;BME280;63998;52.488;13.428;2023-04-24T11:35:27;99750.88;;;16.83;52.17
75420;BME280;63998;52.488;13.428;2023-04-24T11:37:57;99761.38;;;16.36;61.45
75420;BME280;63998;52.488;13.428;2023-04-24T11:40:28;99759.81;;;15.84;64.35
75420;BME280;63998;52.488;13.428;2023-04-24T11:42:55;99768.22;;;15.69;66.59
75420;BME280;63998;52.488;13.428;2023-04-24T11:45:28;99765.66;;;15.92;67.99
75420;BME280;63998;52.488;13.428;2023-04-24T11:47:53;99757.34;;;16.28;66.99
75420;BME280;63998;52.488;13.428;2023-04-24T11:50:22;99749.38;;;16.54;66.49
75420;BME280;63998;52.488;13.428;2023-04-24T11:52:48;99757.13;;;16.80;65.59
75420;BME280;63998;52.488;13.428;2023-04-24T11:57:42;99749.63;;;17.35;63.60
75420;BME280;63998;52.488;13.428;2023-04-24T12:00:15;99747.59;;;17.62;61.51
75420;BME280;63998;52.488;13.428;2023-04-24T12:02:41;99735.34;;;17.83;60.71
75420;BME280;63998;52.488;13.428;2023-04-24T12:05:07;99750.91;;;17.87;58.45
75420;BME280;63998;52.488;13.428;2023-04-24T12:07:42;99733.09;;;17.94;56.38
75420;BME280;63998;52.488;13.428;2023-04-24T12:10:08;99737.97;;;18.03;55.89
75420;BME280;63998;52.488;13.428;2023-04-24T12:12:36;99732.56;;;18.44;55.55
75420;BME280;63998;52.488;13.428;2023-04-24T12:15:07;99728.06;;;18.66;54.17
75420;BME280;63998;52.488;13.428;2023-04-24T12:17:35;99732.50;;;19.19;54.06
75420;BME280;63998;52.488;13.428;2023-04-24T12:20:06;99726.94;;;19.42;50.75
75420;BME280;63998;52.488;13.428;2023-04-24T12:25:14;99713.50;;;19.65;47.79
75420;BME280;63998;52.488;13.428;2023-04-24T12:27:39;99716.88;;;19.16;46.71
75420;BME280;63998;52.488;13.428;2023-04-24T12:30:05;99706.78;;;19.07;47.37
75420;BME280;63998;52.488;13.428;2023-04-24T12:32:41;99705.06;;;19.06;48.09
75420;BME280;63998;52.488;13.428;2023-04-24T12:35:07;99706.94;;;19.04;44.90
75420;BME280;63998;52.488;13.428;2023-04-24T12:37:33;99698.28;;;19.01;45.39
75420;BME280;63998;52.488;13.428;2023-04-24T12:40:12;99726.06;;;18.52;44.75
75420;BME280;63998;52.488;13.428;2023-04-24T12:42:49;99703.38;;;18.12;41.25
75420;BME280;63998;52.488;13.428;2023-04-24T12:45:18;99708.28;;;18.01;41.32
75420;BME280;63998;52.488;13.428;2023-04-24T12:47:44;99711.53;;;18.06;41.34
75420;BME280;63998;52.488;13.428;2023-04-24T12:50:14;99698.47;;;18.23;39.78
75420;BME280;63998;52.488;13.428;2023-04-24T12:52:43;99700.91;;;18.28;39.21
75420;BME280;63998;52.488;13.428;2023-04-24T12:55:08;99699.19;;;18.46;38.71
75420;BME280;63998;52.488;13.428;2023-04-24T12:57:35;99694.50;;;18.15;38.26
75420;BME280;63998;52.488;13.428;2023-04-24T13:00:02;99700.19;;;18.24;38.09